sensor_id;sensor_type;location;lat;lon;timestamp;pressure;altitude;pressure_sealevel;temperature;humidity
23241;BME280;11789;53.482;9.862;2023-08-21T00:00:42;102311.66;;;17.14;100.00
23241;BME280;11789;53.482;9.862;2023-08-21T00:03:07;102309.88;;;17.12;100.00
23241;BME280;11789;53.482;9.862;2023-08-21T00:05:33;102312.53;;;17.06;100.00
23241;BME280;11789;53.482;9.862;2023-08-21T00:07:58;102311.66;;;17.03;100.00
23241;BME280;11789;53.482;9.862;2023-08-21T00:10:24;102311.69;;;16.97;100.00
23241;BME280;11789;53.482;9.862;2023-08-21T00:12:49;102304.78;;;16.90;100.00
23241;BME280;11789;53.482;9.862;2023-08-21T00:15:15;102306.53;;;16.86;100.00
23241;BME280;11789;53.482;9.862;2023-08-21T00:17:40;102310.03;;;16.85;100.00
23241;BME280;11789;53.482;9.862;2023-08-21T00:20:06;102312.63;;;16.85;100.00
23241;BME280;11789;53.482;9.862;2023-08-21T00:22:35;102310.03;;;16.80;100.00
23241;BME280;11789;53.482;9.862;2023-08-21T00:25:01;102305.69;;;16.79;100.00
23241;BME280;11789;53.482;9.862;2023-08-21T00:27:26;102307.41;;;16.80;100.00
23241;BME280;11789;53.482;9.862;2023-08-21T00:29:52;102306.56;;;16.78;100.00
23241;BME280;11789;53.482;9.862;2023-08-21T00:32:17;102313.53;;;16.78;100.00
23241;BME280;11789;53.482;9.862;2023-08-21T00:34:43;102315.25;;;16.76;100.00
23241;BME280;11789;53.482;9.862;2023-08-21T00:37:08;102317.91;;;16.74;100.00
23241;BME280;11789;53.482;9.862;2023-08-21T00:39:33;102307.44;;;16.74;100.00
23241;BME280;11789;53.482;9.862;2023-08-21T00:41:59;102317.87;;;16.68;100.00
23241;BME280;11789;53.482;9.862;2023-08-21T00:44:24;102317.87;;;16.65;100.00
23241;BME280;11789;53.482;9.862;2023-08-21T00:46:50;102322.25;;;16.68;100.00
23241;BME280;11789;53.482;9.862;2023-08-21T00:49:15;102315.28;;;16.68;100.00
23241;BME280;11789;53.482;9.862;2023-08-21T00:51:41;102318.72;;;16.67;100.00
23241;BME280;11789;53.482;9.862;2023-08-21T00:54:07;102318.75;;;16.70;100.00
23241;BME280;11789;53.482;9.862;2023-08-21T00:56:32;102308.28;;;16.67;100.00
23241;BME280;11789;53.482;9.862;2023-08-21T00:58:58;102316.12;;;16.67;100.00
23241;BME280;11789;53.482;9.862;2023-08-21T01:01:24;102309.16;;;16.69;100.00
23241;BME280;11789;53.482;9.862;2023-08-21T01:03:53;102309.16;;;16.66;100.00
23241;BME280;11789;53.482;9.862;2023-08-21T01:06:19;102317.03;;;16.68;100.00
23241;BME280;11789;53.482;9.862;2023-08-21T01:09:08;102311.78;;;16.68;100.00
23241;BME280;11789;53.482;9.862;2023-08-21T01:11:45;102323.97;;;16.69;100.00
23241;BME280;11789;53.482;9.862;2023-08-21T01:14:28;102318.75;;;16.69;100.00
23241;BME280;11789;53.482;9.862;2023-08-21T01:17:00;102323.12;;;16.71;100.00
23241;BME280;11789;53.482;9.862;2023-08-21T01:19:36;102320.50;;;16.71;100.00
23241;BME280;11789;53.482;9.862;2023-08-21T01:22:02;102321.34;;;16.67;100.00
23241;BME280;11789;53.482;9.862;2023-08-21T01:24:28;102324.00;;;16.63;100.00
23241;BME280;11789;53.482;9.862;2023-08-21T01:26:53;102323.12;;;16.59;100.00
23241;BME280;11789;53.482;9.862;2023-08-21T01:29:19;102324.00;;;16.50;100.00
23241;BME280;11789;53.482;9.862;2023-08-21T01:32:11;102324.00;;;16.47;100.00
23241;BME280;11789;53.482;9.862;2023-08-21T01:34:36;102317.06;;;16.48;100.00
23241;BME280;11789;53.482;9.862;2023-08-21T01:37:03;102324.87;;;16.51;100.00
23241;BME280;11789;53.482;9.862;2023-08-21T01:39:29;102317.94;;;16.44;100.00
23241;BME280;11789;53.482;9.862;2023-08-21T01:44:21;102317.06;;;16.26;100.00
23241;BME280;11789;53.482;9.862;2023-08-21T01:46:46;102318.84;;;16.12;100.00
23241;BME280;11789;53.482;9.862;2023-08-21T01:49:12;102321.44;;;16.09;100.00
23241;BME280;11789;53.482;9.862;2023-08-21T01:51:37;102324.03;;;16.06;100.00
23241;BME280;11789;53.482;9.862;2023-08-21T01:54:03;102316.25;;;16.03;100.00
23241;BME280;11789;53.482;9.862;2023-08-21T01:56:28;102312.75;;;16.04;100.00
23241;BME280;11789;53.482;9.862;2023-08-21T01:58:54;102305.78;;;16.01;100.00
23241;BME280;11789;53.482;9.862;2023-08-21T02:01:19;102317.97;;;16.04;100.00
23241;BME280;11789;53.482;9.862;2023-08-21T02:03:45;102315.38;;;16.07;100.00
23241;BME280;11789;53.482;9.862;2023-08-21T02:06:10;102317.09;;;16.09;100.00
23241;BME280;11789;53.482;9.862;2023-08-21T02:08:36;102309.28;;;16.05;100.00
23241;BME280;11789;53.482;9.862;2023-08-21T02:11:02;102309.28;;;16.03;100.00
23241;BME280;11789;53.482;9.862;2023-08-21T02:13:28;102311.00;;;16.06;100.00
23241;BME280;11789;53.482;9.862;2023-08-21T02:15:53;102315.34;;;16.10;100.00
23241;BME280;11789;53.482;9.862;2023-08-21T02:18:19;102319.72;;;16.09;100.00
23241;BME280;11789;53.482;9.862;2023-08-21T02:20:44;102324.06;;;16.12;100.00
23241;BME280;11789;53.482;9.862;2023-08-21T02:23:10;102318.84;;;16.12;100.00
23241;BME280;11789;53.482;9.862;2023-08-21T02:25:35;102325.78;;;16.10;100.00
23241;BME280;11789;53.482;9.862;2023-08-21T02:28:01;102331.03;;;16.07;100.00
23241;BME280;11789;53.482;9.862;2023-08-21T02:30:28;102326.66;;;16.04;100.00
23241;BME280;11789;53.482;9.862;2023-08-21T02:32:54;102328.41;;;16.05;100.00
23241;BME280;11789;53.482;9.862;2023-08-21T02:35:20;102325.78;;;16.04;100.00
23241;BME280;11789;53.482;9.862;2023-08-21T02:37:45;102323.19;;;15.99;100.00
23241;BME280;11789;53.482;9.862;2023-08-21T02:40:11;102332.75;;;15.93;100.00
23241;BME280;11789;53.482;9.862;2023-08-21T02:42:36;102330.12;;;15.91;100.00
23241;BME280;11789;53.482;9.862;2023-08-21T02:45:03;102333.62;;;15.92;100.00
23241;BME280;11789;53.482;9.862;2023-08-21T02:47:35;102339.69;;;15.91;100.00
23241;BME280;11789;53.482;9.862;2023-08-21T02:50:03;102337.97;;;15.90;100.00
23241;BME280;11789;53.482;9.862;2023-08-21T02:52:28;102335.34;;;15.90;100.00
23241;BME280;11789;53.482;9.862;2023-08-21T02:54:54;102344.06;;;15.89;100.00
23241;BME280;11789;53.482;9.862;2023-08-21T02:57:19;102342.31;;;15.88;100.00
23241;BME280;11789;53.482;9.862;2023-08-21T02:59:45;102340.59;;;15.87;100.00
23241;BME280;11789;53.482;9.862;2023-08-21T03:02:10;102345.78;;;15.83;100.00
23241;BME280;11789;53.482;9.862;2023-08-21T03:04:36;102343.19;;;15.77;100.00
23241;BME280;11789;53.482;9.862;2023-08-21T03:07:01;102339.66;;;15.69;100.00
23241;BME280;11789;53.482;9.862;2023-08-21T03:09:27;102348.34;;;15.65;100.00
23241;BME280;11789;53.482;9.862;2023-08-21T03:11:52;102341.34;;;15.60;100.00
23241;BME280;11789;53.482;9.862;2023-08-21T03:14:18;102346.59;;;15.63;100.00
23241;BME280;11789;53.482;9.862;2023-08-21T03:16:43;102342.28;;;15.63;100.00
23241;BME280;11789;53.482;9.862;2023-08-21T03:19:09;102330.94;;;15.60;100.00
23241;BME280;11789;53.482;9.862;2023-08-21T03:21:34;102335.25;;;15.48;100.00
23241;BME280;11789;53.482;9.862;2023-08-21T03:23:59;102347.41;;;15.45;100.00
23241;BME280;11789;53.482;9.862;2023-08-21T03:26:25;102342.19;;;15.45;100.00
23241;BME280;11789;53.482;9.862;2023-08-21T03:28:51;102337.00;;;15.48;100.00
23241;BME280;11789;53.482;9.862;2023-08-21T03:31:16;102335.28;;;15.53;100.00
23241;BME280;11789;53.482;9.862;2023-08-21T03:33:42;102342.22;;;15.52;100.00
23241;BME280;11789;53.482;9.862;2023-08-21T03:36:07;102339.59;;;15.54;100.00
23241;BME280;11789;53.482;9.862;2023-08-21T03:38:33;102338.75;;;15.53;100.00
23241;BME280;11789;53.482;9.862;2023-08-21T03:40:59;102340.47;;;15.56;100.00
23241;BME280;11789;53.482;9.862;2023-08-21T03:43:25;102338.75;;;15.53;100.00
23241;BME280;11789;53.482;9.862;2023-08-21T03:45:50;102346.56;;;15.47;100.00
23241;BME280;11789;53.482;9.862;2023-08-21T03:48:16;102341.31;;;15.40;100.00
23241;BME280;11789;53.482;9.862;2023-08-21T03:50:41;102348.22;;;15.30;100.00
23241;BME280;11789;53.482;9.862;2023-08-21T03:53:07;102346.47;;;15.21;100.00
23241;BME280;11789;53.482;9.862;2023-08-21T03:55:33;102347.31;;;15.13;100.00
23241;BME280;11789;53.482;9.862;2023-08-21T03:57:58;102349.00;;;15.09;100.00
23241;BME280;11789;53.482;9.862;2023-08-21T04:00:24;102347.25;;;15.02;100.00
23241;BME280;11789;53.482;9.862;2023-08-21T04:02:49;102351.56;;;15.00;100.00
23241;BME280;11789;53.482;9.862;2023-08-21T04:05:15;102348.16;;;15.07;100.00
23241;BME280;11789;53.482;9.862;2023-08-21T04:07:41;102345.56;;;15.12;100.00
23241;BME280;11789;53.482;9.862;2023-08-21T04:10:07;102342.91;;;15.04;100.00
23241;BME280;11789;53.482;9.862;2023-08-21T04:12:32;102342.03;;;14.99;100.00
23241;BME280;11789;53.482;9.862;2023-08-21T04:14:57;102336.84;;;15.02;100.00
23241;BME280;11789;53.482;9.862;2023-08-21T04:17:23;102339.47;;;15.07;100.00
23241;BME280;11789;53.482;9.862;2023-08-21T04:19:50;102342.94;;;15.07;100.00
23241;BME280;11789;53.482;9.862;2023-08-21T04:22:15;102342.97;;;15.18;100.00
23241;BME280;11789;53.482;9.862;2023-08-21T04:24:41;102348.22;;;15.27;100.00
23241;BME280;11789;53.482;9.862;2023-08-21T04:27:07;102348.28;;;15.36;100.00
23241;BME280;11789;53.482;9.862;2023-08-21T04:29:32;102351.72;;;15.40;100.00
23241;BME280;11789;53.482;9.862;2023-08-21T04:31:58;102356.09;;;15.44;100.00
23241;BME280;11789;53.482;9.862;2023-08-21T04:34:23;102356.13;;;15.47;100.00
23241;BME280;11789;53.482;9.862;2023-08-21T04:36:49;102356.13;;;15.47;100.00
23241;BME280;11789;53.482;9.862;2023-08-21T04:39:14;102347.41;;;15.51;100.00
23241;BME280;11789;53.482;9.862;2023-08-21T04:41:41;102356.06;;;15.41;100.00
23241;BME280;11789;53.482;9.862;2023-08-21T04:44:06;102363.03;;;15.40;100.00
23241;BME280;11789;53.482;9.862;2023-08-21T04:46:32;102361.31;;;15.50;100.00
23241;BME280;11789;53.482;9.862;2023-08-21T04:48:57;102355.22;;;15.49;100.00
23241;BME280;11789;53.482;9.862;2023-08-21T04:51:23;102362.22;;;15.53;100.00
23241;BME280;11789;53.482;9.862;2023-08-21T04:53:48;102363.94;;;15.56;100.00
23241;BME280;11789;53.482;9.862;2023-08-21T04:56:13;102360.47;;;15.58;100.00
23241;BME280;11789;53.482;9.862;2023-08-21T04:58:39;102356.97;;;15.55;100.00
23241;BME280;11789;53.482;9.862;2023-08-21T05:01:05;102357.00;;;15.52;100.00
23241;BME280;11789;53.482;9.862;2023-08-21T05:03:30;102358.72;;;15.54;100.00
23241;BME280;11789;53.482;9.862;2023-08-21T05:05:56;102351.78;;;15.58;100.00
23241;BME280;11789;53.482;9.862;2023-08-21T05:08:25;102354.47;;;15.67;100.00
23241;BME280;11789;53.482;9.862;2023-08-21T05:10:55;102356.22;;;15.79;100.00
23241;BME280;11789;53.482;9.862;2023-08-21T05:13:21;102365.78;;;15.89;100.00
23241;BME280;11789;53.482;9.862;2023-08-21T05:15:51;102362.31;;;15.99;100.00
23241;BME280;11789;53.482;9.862;2023-08-21T05:18:17;102367.53;;;16.04;100.00
23241;BME280;11789;53.482;9.862;2023-08-21T05:20:43;102363.19;;;16.09;100.00
23241;BME280;11789;53.482;9.862;2023-08-21T05:23:08;102367.53;;;16.16;100.00
23241;BME280;11789;53.482;9.862;2023-08-21T05:25:34;102364.03;;;16.26;100.00
23241;BME280;11789;53.482;9.862;2023-08-21T05:27:59;102368.41;;;16.27;100.00
23241;BME280;11789;53.482;9.862;2023-08-21T05:30:25;102363.19;;;16.33;100.00
23241;BME280;11789;53.482;9.862;2023-08-21T05:32:50;102367.50;;;16.42;100.00
23241;BME280;11789;53.482;9.862;2023-08-21T05:35:16;102361.41;;;16.51;100.00
23241;BME280;11789;53.482;9.862;2023-08-21T05:37:41;102360.56;;;16.55;100.00
23241;BME280;11789;53.482;9.862;2023-08-21T05:40:07;102370.09;;;16.65;100.00
23241;BME280;11789;53.482;9.862;2023-08-21T05:42:33;102370.13;;;16.74;100.00
23241;BME280;11789;53.482;9.862;2023-08-21T05:44:58;102370.97;;;16.81;100.00
23241;BME280;11789;53.482;9.862;2023-08-21T05:47:24;102368.34;;;16.85;100.00
23241;BME280;11789;53.482;9.862;2023-08-21T05:49:50;102370.09;;;16.90;100.00
23241;BME280;11789;53.482;9.862;2023-08-21T05:52:15;102373.53;;;16.98;100.00
23241;BME280;11789;53.482;9.862;2023-08-21T05:54:41;102371.78;;;17.06;100.00
23241;BME280;11789;53.482;9.862;2023-08-21T05:57:06;102372.63;;;17.14;100.00
23241;BME280;11789;53.482;9.862;2023-08-21T05:59:32;102372.59;;;17.20;100.00
23241;BME280;11789;53.482;9.862;2023-08-21T06:01:58;102373.41;;;17.27;100.00
23241;BME280;11789;53.482;9.862;2023-08-21T06:04:24;102376.88;;;17.35;100.00
23241;BME280;11789;53.482;9.862;2023-08-21T06:06:50;102373.38;;;17.41;100.00
23241;BME280;11789;53.482;9.862;2023-08-21T06:09:15;102372.44;;;17.48;100.00
23241;BME280;11789;53.482;9.862;2023-08-21T06:11:43;102388.09;;;17.55;100.00
23241;BME280;11789;53.482;9.862;2023-08-21T06:14:08;102383.75;;;17.59;100.00
23241;BME280;11789;53.482;9.862;2023-08-21T06:16:34;102383.72;;;17.62;100.00
23241;BME280;11789;53.482;9.862;2023-08-21T06:18:59;102379.34;;;17.66;100.00
23241;BME280;11789;53.482;9.862;2023-08-21T06:21:25;102387.16;;;17.67;100.00
23241;BME280;11789;53.482;9.862;2023-08-21T06:23:50;102393.28;;;17.69;100.00
23241;BME280;11789;53.482;9.862;2023-08-21T06:26:15;102389.78;;;17.70;100.00
23241;BME280;11789;53.482;9.862;2023-08-21T06:28:41;102385.41;;;17.74;100.00
23241;BME280;11789;53.482;9.862;2023-08-21T06:31:08;102385.41;;;17.74;100.00
23241;BME280;11789;53.482;9.862;2023-08-21T06:33:34;102399.37;;;17.74;100.00
23241;BME280;11789;53.482;9.862;2023-08-21T06:35:59;102395.84;;;17.78;100.00
23241;BME280;11789;53.482;9.862;2023-08-21T06:38:25;102392.37;;;17.79;100.00
23241;BME280;11789;53.482;9.862;2023-08-21T06:40:50;102394.09;;;17.80;100.00
23241;BME280;11789;53.482;9.862;2023-08-21T06:43:16;102404.56;;;17.80;100.00
23241;BME280;11789;53.482;9.862;2023-08-21T06:45:42;102388.88;;;17.77;100.00
23241;BME280;11789;53.482;9.862;2023-08-21T06:48:08;102392.37;;;17.79;100.00
23241;BME280;11789;53.482;9.862;2023-08-21T06:50:33;102399.34;;;17.80;100.00
23241;BME280;11789;53.482;9.862;2023-08-21T06:52:59;102394.97;;;17.81;100.00
23241;BME280;11789;53.482;9.862;2023-08-21T06:55:24;102389.69;;;17.84;100.00
23241;BME280;11789;53.482;9.862;2023-08-21T06:57:50;102393.22;;;17.84;100.00
23241;BME280;11789;53.482;9.862;2023-08-21T07:00:15;102391.47;;;17.85;100.00
23241;BME280;11789;53.482;9.862;2023-08-21T07:02:41;102390.56;;;17.87;100.00
23241;BME280;11789;53.482;9.862;2023-08-21T07:05:06;102393.16;;;17.89;100.00
23241;BME280;11789;53.482;9.862;2023-08-21T07:07:33;102391.41;;;17.91;100.00
23241;BME280;11789;53.482;9.862;2023-08-21T07:09:59;102388.78;;;17.93;100.00
23241;BME280;11789;53.482;9.862;2023-08-21T07:12:24;102394.00;;;17.96;100.00
23241;BME280;11789;53.482;9.862;2023-08-21T07:14:49;102397.44;;;17.99;100.00
23241;BME280;11789;53.482;9.862;2023-08-21T07:17:15;102398.28;;;18.04;100.00
23241;BME280;11789;53.482;9.862;2023-08-21T07:19:40;102400.00;;;18.08;100.00
23241;BME280;11789;53.482;9.862;2023-08-21T07:22:06;102392.16;;;18.10;100.00
23241;BME280;11789;53.482;9.862;2023-08-21T07:24:31;102391.28;;;18.11;100.00
23241;BME280;11789;53.482;9.862;2023-08-21T07:26:57;102393.00;;;18.12;100.00
23241;BME280;11789;53.482;9.862;2023-08-21T07:29:22;102386.84;;;18.14;100.00
23241;BME280;11789;53.482;9.862;2023-08-21T07:31:48;102395.53;;;18.20;100.00
23241;BME280;11789;53.482;9.862;2023-08-21T07:34:13;102400.75;;;18.23;100.00
23241;BME280;11789;53.482;9.862;2023-08-21T07:36:39;102399.87;;;18.24;100.00
23241;BME280;11789;53.482;9.862;2023-08-21T07:39:04;102398.12;;;18.24;100.00
23241;BME280;11789;53.482;9.862;2023-08-21T07:41:30;102402.47;;;18.28;100.00
23241;BME280;11789;53.482;9.862;2023-08-21T07:43:55;102402.44;;;18.31;100.00
23241;BME280;11789;53.482;9.862;2023-08-21T07:46:21;102397.19;;;18.36;100.00
23241;BME280;11789;53.482;9.862;2023-08-21T07:48:46;102404.13;;;18.40;100.00
23241;BME280;11789;53.482;9.862;2023-08-21T07:51:12;102399.72;;;18.42;100.00
23241;BME280;11789;53.482;9.862;2023-08-21T07:53:38;102400.59;;;18.46;100.00
23241;BME280;11789;53.482;9.862;2023-08-21T07:56:04;102400.53;;;18.50;100.00
23241;BME280;11789;53.482;9.862;2023-08-21T07:58:31;102405.75;;;18.52;100.00
23241;BME280;11789;53.482;9.862;2023-08-21T08:00:56;102399.63;;;18.56;100.00
23241;BME280;11789;53.482;9.862;2023-08-21T08:03:22;102404.84;;;18.57;100.00
23241;BME280;11789;53.482;9.862;2023-08-21T08:05:48;102405.69;;;18.58;100.00
23241;BME280;11789;53.482;9.862;2023-08-21T08:08:13;102398.69;;;18.60;100.00
23241;BME280;11789;53.482;9.862;2023-08-21T08:10:40;102403.88;;;18.66;100.00
23241;BME280;11789;53.482;9.862;2023-08-21T08:13:06;102406.47;;;18.67;100.00
23241;BME280;11789;53.482;9.862;2023-08-21T08:15:32;102396.00;;;18.71;100.00
23241;BME280;11789;53.482;9.862;2023-08-21T08:17:59;102397.69;;;18.76;100.00
23241;BME280;11789;53.482;9.862;2023-08-21T08:20:25;102395.91;;;18.78;100.00
23241;BME280;11789;53.482;9.862;2023-08-21T08:22:50;102402.84;;;18.84;100.00
23241;BME280;11789;53.482;9.862;2023-08-21T08:25:16;102412.44;;;18.86;100.00
23241;BME280;11789;53.482;9.862;2023-08-21T08:27:43;102416.75;;;18.90;100.00
23241;BME280;11789;53.482;9.862;2023-08-21T08:30:09;102410.59;;;18.95;100.00
23241;BME280;11789;53.482;9.862;2023-08-21T08:32:34;102410.50;;;19.01;100.00
23241;BME280;11789;53.482;9.862;2023-08-21T08:35:00;102410.47;;;19.07;100.00
23241;BME280;11789;53.482;9.862;2023-08-21T08:37:25;102410.38;;;19.16;100.00
23241;BME280;11789;53.482;9.862;2023-08-21T08:39:51;102405.00;;;19.25;100.00
23241;BME280;11789;53.482;9.862;2023-08-21T08:42:16;102412.81;;;19.30;100.00
23241;BME280;11789;53.482;9.862;2023-08-21T08:44:43;102410.16;;;19.33;100.00
23241;BME280;11789;53.482;9.862;2023-08-21T08:47:10;102409.22;;;19.35;100.00
23241;BME280;11789;53.482;9.862;2023-08-21T08:49:37;102409.19;;;19.38;99.67
23241;BME280;11789;53.482;9.862;2023-08-21T08:52:02;102405.66;;;19.42;99.20
23241;BME280;11789;53.482;9.862;2023-08-21T08:54:29;102401.25;;;19.44;97.17
23241;BME280;11789;53.482;9.862;2023-08-21T08:56:55;102405.63;;;19.44;98.26
23241;BME280;11789;53.482;9.862;2023-08-21T08:59:20;102401.22;;;19.46;98.74
23241;BME280;11789;53.482;9.862;2023-08-21T09:01:46;102402.94;;;19.49;96.87
23241;BME280;11789;53.482;9.862;2023-08-21T09:04:12;102406.44;;;19.49;97.46
23241;BME280;11789;53.482;9.862;2023-08-21T09:06:38;102407.28;;;19.53;95.72
23241;BME280;11789;53.482;9.862;2023-08-21T09:09:04;102401.06;;;19.60;96.14
23241;BME280;11789;53.482;9.862;2023-08-21T09:11:30;102404.50;;;19.65;95.95
23241;BME280;11789;53.482;9.862;2023-08-21T09:13:58;102403.53;;;19.70;95.28
23241;BME280;11789;53.482;9.862;2023-08-21T09:16:24;102402.66;;;19.73;95.62
23241;BME280;11789;53.482;9.862;2023-08-21T09:18:55;102407.91;;;19.73;95.96
23241;BME280;11789;53.482;9.862;2023-08-21T09:21:25;102405.16;;;19.81;96.67
23241;BME280;11789;53.482;9.862;2023-08-21T09:23:57;102406.91;;;19.80;97.65
23241;BME280;11789;53.482;9.862;2023-08-21T09:26:24;102400.75;;;19.83;97.40
23241;BME280;11789;53.482;9.862;2023-08-21T09:28:51;102395.41;;;19.89;96.52
23241;BME280;11789;53.482;9.862;2023-08-21T09:31:31;102393.63;;;19.92;97.35
23241;BME280;11789;53.482;9.862;2023-08-21T09:34:02;102395.25;;;20.00;96.75
23241;BME280;11789;53.482;9.862;2023-08-21T09:36:31;102398.59;;;20.09;95.97
23241;BME280;11789;53.482;9.862;2023-08-21T09:38:57;102397.66;;;20.13;95.17
23241;BME280;11789;53.482;9.862;2023-08-21T09:41:25;102392.37;;;20.15;94.77
23241;BME280;11789;53.482;9.862;2023-08-21T09:43:51;102393.22;;;20.17;93.71
23241;BME280;11789;53.482;9.862;2023-08-21T09:46:17;102394.84;;;20.24;91.80
23241;BME280;11789;53.482;9.862;2023-08-21T09:48:49;102398.25;;;20.31;89.54
23241;BME280;11789;53.482;9.862;2023-08-21T09:51:17;102397.41;;;20.29;87.71
23241;BME280;11789;53.482;9.862;2023-08-21T09:53:42;102400.03;;;20.27;86.47
23241;BME280;11789;53.482;9.862;2023-08-21T09:56:08;102397.44;;;20.26;84.20
23241;BME280;11789;53.482;9.862;2023-08-21T09:58:37;102393.88;;;20.30;84.37
23241;BME280;11789;53.482;9.862;2023-08-21T10:01:07;102393.84;;;20.33;84.31
23241;BME280;11789;53.482;9.862;2023-08-21T10:03:41;102376.28;;;20.35;84.25
23241;BME280;11789;53.482;9.862;2023-08-21T10:06:10;102381.53;;;20.35;84.31
23241;BME280;11789;53.482;9.862;2023-08-21T10:08:38;102382.37;;;20.37;85.91
23241;BME280;11789;53.482;9.862;2023-08-21T10:11:07;102390.28;;;20.35;85.89
23241;BME280;11789;53.482;9.862;2023-08-21T10:13:33;102384.12;;;20.36;85.43
23241;BME280;11789;53.482;9.862;2023-08-21T10:16:00;102385.91;;;20.36;85.12
23241;BME280;11789;53.482;9.862;2023-08-21T10:18:32;102386.75;;;20.38;84.38
23241;BME280;11789;53.482;9.862;2023-08-21T10:21:11;102387.62;;;20.38;84.21
23241;BME280;11789;53.482;9.862;2023-08-21T10:23:38;102388.47;;;20.39;81.93
23241;BME280;11789;53.482;9.862;2023-08-21T10:26:06;102386.75;;;20.38;82.27
23241;BME280;11789;53.482;9.862;2023-08-21T10:28:51;102380.59;;;20.39;82.35
23241;BME280;11789;53.482;9.862;2023-08-21T10:31:40;102384.12;;;20.36;83.12
23241;BME280;11789;53.482;9.862;2023-08-21T10:34:08;102379.66;;;20.43;83.66
23241;BME280;11789;53.482;9.862;2023-08-21T10:39:24;102383.00;;;20.53;82.53
23241;BME280;11789;53.482;9.862;2023-08-21T10:42:00;102384.69;;;20.57;82.82
23241;BME280;11789;53.482;9.862;2023-08-21T10:44:52;102386.41;;;20.58;82.45
23241;BME280;11789;53.482;9.862;2023-08-21T10:49:56;102391.63;;;20.61;84.49
23241;BME280;11789;53.482;9.862;2023-08-21T10:52:26;102385.47;;;20.62;80.69
23241;BME280;11789;53.482;9.862;2023-08-21T10:54:53;102386.34;;;20.61;81.25
23241;BME280;11789;53.482;9.862;2023-08-21T10:57:19;102385.47;;;20.62;81.91
23241;BME280;11789;53.482;9.862;2023-08-21T10:59:56;102385.41;;;20.65;82.35
23241;BME280;11789;53.482;9.862;2023-08-21T11:02:23;102390.62;;;20.66;81.88
23241;BME280;11789;53.482;9.862;2023-08-21T11:04:50;102391.28;;;20.79;82.92
23241;BME280;11789;53.482;9.862;2023-08-21T11:07:15;102391.12;;;20.87;81.99
23241;BME280;11789;53.482;9.862;2023-08-21T11:09:42;102380.78;;;20.79;81.83
23241;BME280;11789;53.482;9.862;2023-08-21T11:12:09;102383.41;;;20.78;81.91
23241;BME280;11789;53.482;9.862;2023-08-21T11:14:38;102383.44;;;20.76;82.54
23241;BME280;11789;53.482;9.862;2023-08-21T11:17:05;102380.81;;;20.76;82.53
23241;BME280;11789;53.482;9.862;2023-08-21T11:19:32;102383.31;;;20.82;82.81
23241;BME280;11789;53.482;9.862;2023-08-21T11:21:58;102379.75;;;20.86;83.48
23241;BME280;11789;53.482;9.862;2023-08-21T11:27:10;102382.37;;;20.86;82.48
23241;BME280;11789;53.482;9.862;2023-08-21T11:29:45;102386.69;;;20.90;80.39
23241;BME280;11789;53.482;9.862;2023-08-21T11:32:20;102389.34;;;20.89;78.61
23241;BME280;11789;53.482;9.862;2023-08-21T11:34:53;102389.25;;;20.93;79.52
23241;BME280;11789;53.482;9.862;2023-08-21T11:37:20;102384.06;;;20.90;78.29
23241;BME280;11789;53.482;9.862;2023-08-21T11:39:49;102378.78;;;20.90;78.89
23241;BME280;11789;53.482;9.862;2023-08-21T11:42:15;102385.87;;;20.87;79.16
23241;BME280;11789;53.482;9.862;2023-08-21T11:44:49;102378.06;;;20.82;80.67
23241;BME280;11789;53.482;9.862;2023-08-21T11:47:17;102383.16;;;20.91;81.09
23241;BME280;11789;53.482;9.862;2023-08-21T11:49:44;102384.88;;;20.94;80.05
23241;BME280;11789;53.482;9.862;2023-08-21T11:52:13;102385.66;;;20.97;80.00
23241;BME280;11789;53.482;9.862;2023-08-21T11:54:40;102385.56;;;21.02;79.82
23241;BME280;11789;53.482;9.862;2023-08-21T11:57:12;102378.47;;;21.06;78.61
23241;BME280;11789;53.482;9.862;2023-08-21T11:59:38;102382.84;;;21.07;78.84
23241;BME280;11789;53.482;9.862;2023-08-21T12:02:18;102386.37;;;21.06;79.09
23241;BME280;11789;53.482;9.862;2023-08-21T12:04:44;102387.19;;;21.09;79.46
23241;BME280;11789;53.482;9.862;2023-08-21T12:07:10;102378.34;;;21.12;78.70
23241;BME280;11789;53.482;9.862;2023-08-21T12:09:36;102387.16;;;21.11;78.71
23241;BME280;11789;53.482;9.862;2023-08-21T12:12:02;102383.66;;;21.10;78.44
23241;BME280;11789;53.482;9.862;2023-08-21T12:14:28;102379.31;;;21.08;78.33
23241;BME280;11789;53.482;9.862;2023-08-21T12:16:54;102379.22;;;21.14;78.29
23241;BME280;11789;53.482;9.862;2023-08-21T12:19:21;102382.53;;;21.22;77.61
23241;BME280;11789;53.482;9.862;2023-08-21T12:21:47;102384.19;;;21.26;77.46
23241;BME280;11789;53.482;9.862;2023-08-21T12:24:12;102371.97;;;21.23;76.16
23241;BME280;11789;53.482;9.862;2023-08-21T12:26:38;102379.81;;;21.27;76.42
23241;BME280;11789;53.482;9.862;2023-08-21T12:29:03;102377.12;;;21.30;74.83
23241;BME280;11789;53.482;9.862;2023-08-21T12:31:29;102378.78;;;21.35;75.31
23241;BME280;11789;53.482;9.862;2023-08-21T12:33:56;102373.47;;;21.37;74.05
23241;BME280;11789;53.482;9.862;2023-08-21T12:36:21;102379.69;;;21.33;74.67
23241;BME280;11789;53.482;9.862;2023-08-21T12:38:47;102382.22;;;21.37;75.53
23241;BME280;11789;53.482;9.862;2023-08-21T12:41:13;102371.66;;;21.40;75.07
23241;BME280;11789;53.482;9.862;2023-08-21T12:43:38;102374.25;;;21.42;74.53
23241;BME280;11789;53.482;9.862;2023-08-21T12:46:05;102373.22;;;21.47;74.86
23241;BME280;11789;53.482;9.862;2023-08-21T12:48:30;102370.50;;;21.52;74.21
23241;BME280;11789;53.482;9.862;2023-08-21T12:50:55;102370.50;;;21.52;74.18